createdAt,value
2022-10-23T00:01:50.236Z,9.50
2022-10-23T00:05:50.400Z,9.60
2022-10-23T00:09:50.465Z,9.60
2022-10-23T00:13:51.361Z,9.60
2022-10-23T00:17:54.423Z,9.60
2022-10-23T00:21:54.629Z,9.60
2022-10-23T00:25:54.845Z,9.60
2022-10-23T00:29:55.198Z,9.60
2022-10-23T00:33:58.147Z,9.70
2022-10-23T00:37:58.434Z,9.80
2022-10-23T00:41:59.068Z,9.80
2022-10-23T00:46:00.969Z,9.90
2022-10-23T00:50:03.993Z,10.00
2022-10-23T00:54:23.378Z,10.00
2022-10-23T00:58:24.843Z,10.10
2022-10-23T01:02:25.280Z,10.10
2022-10-23T01:06:40.100Z,10.20
2022-10-23T01:10:48.319Z,10.20
2022-10-23T01:15:03.177Z,10.30
2022-10-23T01:19:15.573Z,10.30
2022-10-23T01:24:10.152Z,10.30
2022-10-23T01:28:23.577Z,10.40
2022-10-23T01:32:34.820Z,10.40
2022-10-23T01:36:37.334Z,10.40
2022-10-23T01:40:50.195Z,10.50
2022-10-23T01:45:01.451Z,10.50
2022-10-23T01:49:15.612Z,10.50
2022-10-23T01:53:16.570Z,10.50
2022-10-23T01:57:22.343Z,10.50
2022-10-23T02:01:30.976Z,10.60
2022-10-23T02:05:33.417Z,10.60
2022-10-23T02:09:36.645Z,10.60
2022-10-23T02:13:46.905Z,10.60
2022-10-23T02:18:07.421Z,10.70
2022-10-23T02:22:15.210Z,10.70
2022-10-23T02:26:23.480Z,10.70
2022-10-23T02:30:24.853Z,10.70
2022-10-23T02:34:41.649Z,10.70
2022-10-23T02:38:46.751Z,10.70
2022-10-23T02:42:57.328Z,10.60
2022-10-23T02:47:13.913Z,10.60
2022-10-23T02:51:23.894Z,10.60
2022-10-23T02:55:45.243Z,10.60
2022-10-23T02:59:50.596Z,10.60
2022-10-23T03:03:57.415Z,10.70
2022-10-23T03:08:00.437Z,10.70
2022-10-23T03:12:00.547Z,10.70
2022-10-23T03:16:00.784Z,10.70
2022-10-23T03:20:01.416Z,10.70
2022-10-23T03:24:04.288Z,10.70
2022-10-23T03:28:10.688Z,10.80
2022-10-23T03:32:10.983Z,10.80
2022-10-23T03:36:12.823Z,10.70
2022-10-23T03:40:16.710Z,10.80
2022-10-23T03:44:17.929Z,10.80
2022-10-23T03:48:18.695Z,10.80
2022-10-23T03:52:18.848Z,10.90
2022-10-23T03:56:21.719Z,10.80
2022-10-23T04:00:22.171Z,10.80
2022-10-23T04:04:22.527Z,10.80
2022-10-23T04:08:22.867Z,10.90
2022-10-23T04:12:29.204Z,10.90
2022-10-23T04:16:29.659Z,10.90
2022-10-23T04:20:29.773Z,10.90
2022-10-23T04:24:33.634Z,10.90
2022-10-23T04:28:37.814Z,10.90
2022-10-23T04:32:38.020Z,10.90
2022-10-23T04:36:38.432Z,11.00
2022-10-23T04:40:42.607Z,10.90
2022-10-23T04:44:45.500Z,11.00
2022-10-23T04:48:46.405Z,11.00
2022-10-23T04:53:01.755Z,11.00
2022-10-23T04:57:08.148Z,11.00
2022-10-23T05:01:29.371Z,11.00
2022-10-23T05:05:30.538Z,11.00
2022-10-23T05:09:38.297Z,11.00
2022-10-23T05:13:58.960Z,11.00
2022-10-23T05:18:13.466Z,11.00
2022-10-23T05:22:16.370Z,11.00
2022-10-23T05:26:23.179Z,11.00
2022-10-23T05:30:26.123Z,11.00
2022-10-23T05:34:32.899Z,11.00
2022-10-23T05:38:37.665Z,11.00
2022-10-23T05:42:45.557Z,11.10
2022-10-23T05:46:49.497Z,11.10
2022-10-23T05:51:23.076Z,11.10
2022-10-23T05:55:34.180Z,11.10
2022-10-23T06:00:00.346Z,11.00
2022-10-23T06:04:02.329Z,11.00
2022-10-23T06:08:25.286Z,11.00
2022-10-23T06:12:27.073Z,11.10
2022-10-23T06:16:28.247Z,11.10
2022-10-23T06:20:28.861Z,11.20
2022-10-23T06:24:40.598Z,11.20
2022-10-23T06:28:45.654Z,11.20
2022-10-23T06:32:46.330Z,11.30
2022-10-23T06:36:48.366Z,11.30
2022-10-23T06:41:14.507Z,11.40
2022-10-23T06:45:16.942Z,11.40
2022-10-23T06:49:35.912Z,11.50
2022-10-23T06:53:38.446Z,11.60
2022-10-23T06:57:48.834Z,11.60
2022-10-23T07:01:49.473Z,11.60
2022-10-23T07:05:50.267Z,11.70
2022-10-23T07:09:50.455Z,11.80
2022-10-23T07:14:00.199Z,11.80
2022-10-23T07:18:00.306Z,11.90
2022-10-23T07:22:13.441Z,12.00
2022-10-23T07:26:27.779Z,12.00
2022-10-23T07:30:30.578Z,12.10
2022-10-23T07:34:33.153Z,12.10
2022-10-23T07:38:56.220Z,12.20
2022-10-23T07:42:56.380Z,12.20
2022-10-23T07:46:59.423Z,12.10
2022-10-23T07:51:03.649Z,12.20
2022-10-23T07:55:04.882Z,12.30
2022-10-23T07:59:07.971Z,12.30
2022-10-23T08:03:12.786Z,12.40
2022-10-23T08:07:13.457Z,12.50
2022-10-23T08:11:24.777Z,12.50
2022-10-23T08:15:25.196Z,12.70
2022-10-23T08:19:33.734Z,12.90
2022-10-23T08:23:35.365Z,13.10
2022-10-23T08:27:35.525Z,13.00
2022-10-23T08:31:37.068Z,13.20
2022-10-23T08:35:55.864Z,13.30
2022-10-23T08:40:02.615Z,13.30
2022-10-23T08:44:45.124Z,13.20
2022-10-23T08:48:54.217Z,13.30
2022-10-23T08:53:32.547Z,13.30
2022-10-23T08:57:43.758Z,13.30
2022-10-23T09:01:49.788Z,13.30
2022-10-23T09:06:10.191Z,13.30
2022-10-23T09:10:42.692Z,13.50
2022-10-23T09:15:07.209Z,13.90
2022-10-23T09:19:17.590Z,14.10
2022-10-23T09:23:22.063Z,14.40
2022-10-23T09:27:25.954Z,14.90
2022-10-23T09:31:26.499Z,15.10
2022-10-23T09:35:29.087Z,15.40
2022-10-23T09:39:34.524Z,15.20
2022-10-23T09:43:37.752Z,14.90
2022-10-23T09:47:39.960Z,15.20
2022-10-23T09:51:59.178Z,15.30
2022-10-23T09:56:04.510Z,15.10
2022-10-23T10:00:21.633Z,15.10
2022-10-23T10:04:22.780Z,15.20
2022-10-23T10:08:38.257Z,15.30
2022-10-23T10:12:58.400Z,15.40
2022-10-23T10:17:09.055Z,15.80
2022-10-23T10:21:21.658Z,16.30
2022-10-23T10:25:30.801Z,16.80
2022-10-23T10:29:53.500Z,17.10
2022-10-23T10:34:13.130Z,17.50
2022-10-23T10:38:38.504Z,17.40
2022-10-23T10:43:07.806Z,17.10
2022-10-23T10:47:25.662Z,17.20
2022-10-23T10:51:38.199Z,18.00
2022-10-23T10:55:44.393Z,18.00
2022-10-23T10:59:53.994Z,17.60
2022-10-23T11:03:59.860Z,17.80
2022-10-23T11:08:09.964Z,18.20
2022-10-23T11:12:16.770Z,18.50
2022-10-23T11:16:24.326Z,18.30
2022-10-23T11:20:54.137Z,18.50
2022-10-23T11:25:43.969Z,19.00
2022-10-23T11:30:15.555Z,19.30
2022-10-23T11:34:52.540Z,19.80
2022-10-23T11:38:59.170Z,19.80
2022-10-23T11:43:01.956Z,19.60
2022-10-23T11:47:08.452Z,20.20
2022-10-23T11:51:28.403Z,20.40
2022-10-23T11:55:31.015Z,20.60
2022-10-23T11:59:37.954Z,20.60
2022-10-23T12:03:55.877Z,20.40
2022-10-23T12:08:02.789Z,20.50
2022-10-23T12:12:29.867Z,20.40
2022-10-23T12:16:41.172Z,19.80
2022-10-23T12:20:50.828Z,19.70
2022-10-23T12:25:06.029Z,19.80
2022-10-23T12:29:21.868Z,20.30
2022-10-23T12:33:37.819Z,20.20
2022-10-23T12:38:04.383Z,19.80
2022-10-23T12:42:05.381Z,18.90
2022-10-23T12:46:20.780Z,19.30
2022-10-23T12:50:28.753Z,19.80
2022-10-23T12:54:29.748Z,20.00
2022-10-23T12:58:33.788Z,20.10
2022-10-23T13:02:37.286Z,19.80
2022-10-23T13:06:42.349Z,19.30
2022-10-23T13:10:43.250Z,18.80
2022-10-23T13:14:57.380Z,18.60
2022-10-23T13:18:57.616Z,18.60
2022-10-23T13:23:13.738Z,18.80
2022-10-23T13:27:29.648Z,18.80
2022-10-23T13:31:35.765Z,18.70
2022-10-23T13:35:37.380Z,18.60
2022-10-23T13:39:40.186Z,18.30
2022-10-23T13:43:40.683Z,18.20
2022-10-23T13:47:41.380Z,18.30
2022-10-23T13:51:47.566Z,18.00
2022-10-23T13:55:57.827Z,17.50
2022-10-23T13:59:58.935Z,17.20
2022-10-23T14:04:03.933Z,16.90
2022-10-23T14:08:04.121Z,17.00
2022-10-23T14:12:07.447Z,17.00
2022-10-23T14:16:08.448Z,17.10
2022-10-23T14:20:10.662Z,17.10
2022-10-23T14:24:11.939Z,16.90
2022-10-23T14:28:14.642Z,16.90
2022-10-23T14:32:15.024Z,16.90
2022-10-23T14:36:15.755Z,16.90
2022-10-23T14:40:16.153Z,16.80
2022-10-23T14:44:18.945Z,16.70
2022-10-23T14:48:19.463Z,16.60
2022-10-23T14:52:19.688Z,16.60
2022-10-23T14:56:19.761Z,16.70
2022-10-23T15:00:22.900Z,16.70
2022-10-23T15:04:24.213Z,16.60
2022-10-23T15:08:25.568Z,16.30
2022-10-23T15:12:26.940Z,16.20
2022-10-23T15:16:30.449Z,16.10
2022-10-23T15:20:30.602Z,16.00
2022-10-23T15:24:30.715Z,16.10
2022-10-23T15:28:32.528Z,16.30
2022-10-23T15:32:35.273Z,16.20
2022-10-23T15:36:35.568Z,16.10
2022-10-23T15:40:35.639Z,15.80
2022-10-23T15:44:37.277Z,15.60
2022-10-23T15:48:40.004Z,15.40
2022-10-23T15:52:40.180Z,15.30
2022-10-23T15:56:40.345Z,15.10
2022-10-23T16:00:40.515Z,15.00
2022-10-23T16:04:43.169Z,14.80
2022-10-23T16:08:43.881Z,14.60
2022-10-23T16:12:44.291Z,14.50
2022-10-23T16:16:44.953Z,14.40
2022-10-23T16:20:47.707Z,14.30
2022-10-23T16:24:47.820Z,14.20
2022-10-23T16:28:49.995Z,14.20
2022-10-23T16:32:50.828Z,14.10
2022-10-23T16:36:54.114Z,14.10
2022-10-23T16:41:04.923Z,14.10
2022-10-23T16:45:25.320Z,14.20
2022-10-23T16:49:25.671Z,14.20
2022-10-23T16:53:30.884Z,14.20
2022-10-23T16:57:31.065Z,14.30
2022-10-23T17:01:34.125Z,14.30
2022-10-23T17:05:37.510Z,14.30
2022-10-23T17:09:40.461Z,14.10
2022-10-23T17:13:45.469Z,14.00
2022-10-23T17:17:45.891Z,14.00
2022-10-23T17:21:47.034Z,14.10
2022-10-23T17:25:49.720Z,14.20
2022-10-23T17:29:49.934Z,14.20
2022-10-23T17:33:52.092Z,14.20
2022-10-23T17:37:52.220Z,14.10
2022-10-23T17:41:56.006Z,14.10
2022-10-23T17:45:56.333Z,14.00
2022-10-23T17:49:56.502Z,14.00
2022-10-23T17:54:02.773Z,14.00
2022-10-23T17:58:05.560Z,13.90
2022-10-23T18:02:05.846Z,14.00
2022-10-23T18:06:10.782Z,13.90
2022-10-23T18:10:14.462Z,13.90
2022-10-23T18:14:17.896Z,13.90
2022-10-23T18:18:17.994Z,13.90
2022-10-23T18:26:22.782Z,13.90
2022-10-23T18:30:25.990Z,13.90
2022-10-23T18:34:28.992Z,13.90
2022-10-23T18:38:32.669Z,13.90
2022-10-23T18:42:34.814Z,13.90
2022-10-23T18:46:38.690Z,13.90
2022-10-23T18:50:40.268Z,13.80
2022-10-23T18:54:40.946Z,13.90
2022-10-23T18:58:41.396Z,13.90
2022-10-23T19:02:45.362Z,13.90
2022-10-23T19:06:48.749Z,13.90
2022-10-23T19:10:50.829Z,13.90
2022-10-23T19:14:52.004Z,14.00
2022-10-23T19:19:01.599Z,13.90
2022-10-23T19:23:05.377Z,13.90
2022-10-23T19:27:06.228Z,13.90
2022-10-23T19:31:07.628Z,14.00
2022-10-23T19:35:12.652Z,14.00
2022-10-23T19:39:12.731Z,14.00
2022-10-23T19:43:12.957Z,13.90
2022-10-23T19:47:13.121Z,14.00
2022-10-23T19:51:16.380Z,13.90
2022-10-23T19:55:16.737Z,13.90
2022-10-23T19:59:17.224Z,13.90
2022-10-23T20:03:18.994Z,13.90
2022-10-23T20:07:25.447Z,13.90
2022-10-23T20:11:28.859Z,14.00
2022-10-23T20:15:29.056Z,14.00
2022-10-23T20:19:29.447Z,14.00
2022-10-23T20:23:32.491Z,13.90
2022-10-23T20:31:56.048Z,14.00
2022-10-23T20:40:00.349Z,14.00
2022-10-23T20:44:00.460Z,13.90
2022-10-23T20:48:01.175Z,13.90
2022-10-23T20:52:02.791Z,13.90
2022-10-23T20:56:08.542Z,13.90
2022-10-23T21:00:11.962Z,13.90
2022-10-23T21:04:15.016Z,14.00
2022-10-23T21:08:15.425Z,13.80
2022-10-23T21:12:18.405Z,13.80
2022-10-23T21:16:24.844Z,13.60
2022-10-23T21:20:27.978Z,13.50
2022-10-23T21:24:28.186Z,13.40
2022-10-23T21:28:31.023Z,13.40
2022-10-23T21:32:31.093Z,13.40
2022-10-23T21:36:34.297Z,13.40
2022-10-23T21:40:40.244Z,13.40
2022-10-23T21:44:43.590Z,13.50
2022-10-23T21:48:44.553Z,13.40
2022-10-23T21:52:45.070Z,13.40
2022-10-23T21:56:48.777Z,13.50
2022-10-23T22:00:51.503Z,13.50
2022-10-23T22:04:51.650Z,13.50
2022-10-23T22:08:52.263Z,13.40
2022-10-23T22:12:52.430Z,13.40
2022-10-23T22:16:56.099Z,13.40
2022-10-23T22:21:02.480Z,13.40
2022-10-23T22:25:02.817Z,13.50
2022-10-23T22:29:06.736Z,13.40
2022-10-23T22:33:09.383Z,13.40
2022-10-23T22:37:09.674Z,13.30
2022-10-23T22:41:11.087Z,13.30
2022-10-23T22:45:12.914Z,13.20
2022-10-23T22:49:15.611Z,13.20
2022-10-23T22:53:16.805Z,13.10
2022-10-23T22:57:17.121Z,13.00
2022-10-23T23:01:21.480Z,13.00
2022-10-23T23:05:24.171Z,13.00
2022-10-23T23:09:24.289Z,13.00
2022-10-23T23:13:24.813Z,13.10
2022-10-23T23:17:24.951Z,13.20
2022-10-23T23:21:28.398Z,13.30
2022-10-23T23:25:28.506Z,13.30
2022-10-23T23:29:29.674Z,13.40
2022-10-23T23:33:30.839Z,13.50
2022-10-23T23:37:33.629Z,13.50
2022-10-23T23:41:33.750Z,13.50
2022-10-23T23:45:34.363Z,13.60
2022-10-23T23:49:34.514Z,13.70
2022-10-23T23:53:37.265Z,13.70
2022-10-23T23:57:37.392Z,13.80
